Metar Cercanos

 

LEPA - Palma De Mallorc, Spain
Distance from station: ONO 38km
Actualización: 24/01/2018 10:00
Few Clouds
Few Clouds
 Viento del calm
Viento: Calma
Temperatura: 9°C
Rocío: 8°C
Humedad: 94%
Barómetro: 1028 hPa
Clouds: Few Clouds
Visibility: 10 km
Cloud details: Few Clouds 30 m
2018/01/24 09:00 LEPA 240900Z 00000KT 9999 FEW001 09/08 Q1028 NOSIG
LEMH - Mahon/Menorca Is, Spain
Distance from station: ENE 105km
Actualización: 24/01/2018 10:00
Despejado
Despejado
 Viento del varies
Viento: varies 2 km/h
Temperatura: 13°C
Rocío: 11°C
Humedad: 88%
Barómetro: 1028 hPa
Resumen: Despejado
Visibility: greater than 10 km
2018/01/24 09:00 LEMH 240900Z VRB01KT CAVOK 13/11 Q1028
 
LEIB - Ibiza/Es Codola, Spain
Distance from station: OSO 165km
Actualización: 24/01/2018 10:00
Muy nuboso
Muy nuboso
 Viento del ESE
Viento: ESE 7 km/h
Temperatura: 13°C
Rocío: 12°C
Humedad: 94%
Barómetro: 1029 hPa
Clouds: Muy nuboso
Visibility: 10 km
Cloud details: Muy nuboso 274 m
2018/01/24 09:00 LEIB 240900Z 12004KT 050V150 9999 BKN009 13/12 Q1029 NOSIG
LEBL - Barcelona Airpor, Spain
Distance from station: NNO 225km
Actualización: 24/01/2018 10:00
Despejado
Despejado
 Viento del NNO
Viento: NNO 15 km/h
Temperatura: 9°C
Sensación frio: 7°C
Rocío: 5°C
Humedad: 76%
Barómetro: 1028 hPa
Resumen: Despejado
Visibility: greater than 10 km
2018/01/24 09:00 LEBL 240900Z 33008KT 240V010 CAVOK 09/05 Q1028 NOSIG
 
LEVC - Valencia (civ/Mi, Spain
Distance from station: NO 188km
Actualización: 24/01/2018 10:00
Despejado
Despejado
 Viento del varies
Viento: varies 4 km/h
Temperatura: 10°C
Rocío: 4°C
Humedad: 67%
Barómetro: 1029 hPa
Resumen: Despejado
Visibility: greater than 10 km
2018/01/24 09:00 LEVC 240900Z VRB02KT CAVOK 10/04 Q1029 NOSIG
LEGE - Gerona/Costa Bra, Spain
Distance from station: N 276km
Actualización: 24/01/2018 10:00
Despejado
Despejado
 Viento del calm
Viento: Calma
Temperatura: 6°C
Rocío: 6°C
Humedad: 100%
Barómetro: 1028 hPa
Resumen: Despejado
Visibility: greater than 10 km
2018/01/24 09:00 LEGE 240900Z 00000KT CAVOK 06/06 Q1028
 
LEAL - Alicante/El Alte, Spain
Distance from station: OSO 344km
Actualización: 24/01/2018 10:00
Despejado
Despejado
 Viento del O
Viento: O 6 km/h
Temperatura: 13°C
Rocío: 8°C
Humedad: 72%
Barómetro: 1029 hPa
Resumen: Despejado
Visibility: greater than 10 km
2018/01/24 09:00 LEAL 240900Z 26003KT CAVOK 13/08 Q1029 NOSIG
LEAM - Almeria Airport, Spain
Distance from station: SSO 56km
Actualización: 24/01/2018 10:00
Despejado
Despejado
 Viento del N
Viento: N 6 km/h
Temperatura: 13°C
Rocío: 5°C
Humedad: 59%
Barómetro: 1028 hPa
Resumen: Despejado
Visibility: greater than 10 km
2018/01/24 09:00 LEAM 240900Z 35003KT CAVOK 13/05 Q1028
 
LEZG - Zaragoza (mil/Ci, Spain
Distance from station: NO 431km
Actualización: 24/01/2018 10:00
Partial fog, Muy nuboso
Partial fog, Muy nuboso
 Viento del ESE
Viento: ESE 11 km/h
Temperatura: 6°C
Sensación frio: 4°C
Rocío: 6°C
Humedad: 100%
Barómetro: 1028 hPa
Resumen: Partial Fog
Clouds: Muy nuboso
Visibility: 2 km
Cloud details: Muy nuboso 91 m
2018/01/24 09:00 LEZG 240900Z 11006KT 080V140 1800 0800SE PRFG BKN003 06/06 Q1028
LEMD - Madrid/Barajas, Spain
Distance from station: ONO 234km
Actualización: 24/01/2018 10:00
Despejado
Despejado
 Viento del N
Viento: N 6 km/h
Temperatura: 2°C
Rocío: 1°C
Humedad: 93%
Barómetro: 1028 hPa
Resumen: Despejado
Visibility: greater than 10 km
2018/01/24 09:00 LEMD 240900Z 36003KT CAVOK 02/01 Q1028 NOSIG
 
LEGR - Granada Airport, Spain
Distance from station: OSO 62km
Actualización: 24/01/2018 10:00
Despejado
Despejado
 Viento del calm
Viento: Calma
Temperatura: 4°C
Rocío: 2°C
Humedad: 87%
Barómetro: 1029 hPa
Resumen: Despejado
Visibility: greater than 10 km
2018/01/24 09:00 LEGR 240900Z 00000KT CAVOK 04/02 Q1029
LEMG - Malaga (civ/Mil), Spain
Distance from station: OSO 227km
Actualización: 24/01/2018 10:00
Cubierto
Cubierto
 Viento del ONO
Viento: ONO 4 km/h
Temperatura: 9°C
Rocío: 8°C
Humedad: 94%
Barómetro: 1029 hPa
Clouds: Cubierto
Visibility: 8 km
Cloud details: Cubierto 579 m
2018/01/24 09:00 LEMG 240900Z 30002KT 8000 OVC019 09/08 Q1029 NOSIG
 
LEZL - Sevilla (civ/Mil, Spain
Distance from station: S 318km
Actualización: 24/01/2018 10:00
Mist, Parcialmente nuboso
Mist, Parcialmente nuboso
 Viento del varies
Viento: varies 4 km/h
Temperatura: 9°C
Rocío: 8°C
Humedad: 94%
Barómetro: 1028 hPa
Resumen: Mist
Clouds: Parcialmente nuboso
Visibility: 5 km
2018/01/24 09:00 LEZL 240900Z VRB02KT 5000 BR NSC 09/08 Q1028 NOSIG
LEVT - Vitoria, Spain
Distance from station: NO 226km
Actualización: 24/01/2018 10:00
Muy nuboso
Muy nuboso
 Viento del SO
Viento: SO 22 km/h
Temperatura: 6°C
Sensación frio: 2°C
Rocío: 4°C
Humedad: 87%
Barómetro: 1026 hPa
Clouds: Muy nuboso
Visibility: 10 km
Cloud details: Muy nuboso 396 m
2018/01/24 09:00 LEVT 240900Z 23012KT 9999 BKN013 06/04 Q1026
 
LEBB - Bilbao/Sondica, Spain
Distance from station: NNO 235km
Actualización: 24/01/2018 10:00
Despejado
Despejado
 Viento del varies
Viento: varies 4 km/h
Temperatura: 12°C
Rocío: 6°C
Humedad: 67%
Barómetro: 1025 hPa
Resumen: Despejado
Visibility: greater than 10 km
2018/01/24 09:00 LEBB 240900Z VRB02KT CAVOK 12/06 Q1025 NOSIG
LESO - San Sebastian/Fu, Spain
Distance from station: N 231km
Actualización: 24/01/2018 10:00
Despejado
Despejado
 Viento del NE
Viento: NE 7 km/h
Temperatura: 11°C
Rocío: 10°C
Humedad: 94%
Barómetro: 1023 hPa
Resumen: Despejado
Visibility: greater than 10 km
2018/01/24 09:00 LESO 240900Z 05004KT CAVOK 11/10 Q1023
 
LEVD - Valladolid(Mil/C, Spain
Distance from station: ONO 239km
Actualización: 24/01/2018 10:00
Niebla, Cubierto
Niebla, Cubierto
 Viento del varies
Viento: varies 4 km/h
Temperatura: 2°C
Rocío: 2°C
Humedad: 100%
Barómetro: 1027 hPa
Resumen: Niebla
Clouds: Cubierto
Visibility: 1 km
Cloud details: Cubierto 61 m
2018/01/24 09:00 LEVD 240900Z VRB02KT 0600 R23/0900N R05/1000D FG VV002 02/02 Q1027
LESA - Salamanca (civ/M, Spain
Distance from station: ONO 349km
Actualización: 24/01/2018 10:00
Freezing fog, Cubierto
Freezing fog, Cubierto
 Viento del varies
Viento: varies 2 km/h
Temperatura: 0°C
Rocío: -1°C
Humedad: 93%
Barómetro: 1028 hPa
Resumen: Freezing Fog
Clouds: Cubierto
Visibility: 0 km
Cloud details: Cubierto 30 m
2018/01/24 09:00 LESA 240900Z VRB01KT 0100 R21/0250N FZFG VV001 M00/M01 Q1028
 
LEXJ - Santander/Paraya, Spain
Distance from station: NNO 247km
Actualización: 24/01/2018 10:00
Muy nuboso
Muy nuboso
 Viento del SSO
Viento: SSO 19 km/h
Temperatura: 11°C
Rocío: 4°C
Humedad: 62%
Barómetro: 1025 hPa
Clouds: Muy nuboso
Visibility: 10 km
Cloud details: Muy nuboso 975 m
Muy nuboso 1524 m
2018/01/24 09:00 LEXJ 240900Z 21010KT 9999 BKN032 BKN050 11/04 Q1025
LEAS - Asturias/Aviles, Spain
Distance from station: NO 214km
Actualización: 24/01/2018 10:00
Despejado
Despejado
 Viento del SO
Viento: SO 20 km/h
Temperatura: 9°C
Sensación frio: 6°C
Rocío: 4°C
Humedad: 71%
Barómetro: 1024 hPa
Resumen: Despejado
Visibility: greater than 10 km
2018/01/24 09:00 LEAS 240900Z 23011KT CAVOK 09/04 Q1024 NOSIG
 
LECO - La Coruna/Alvedr, Spain
Distance from station: ONO 222km
Actualización: 24/01/2018 10:00
Parcialmente nuboso
Parcialmente nuboso
 Viento del S
Viento: S 30 km/h
Temperatura: 12°C
Rocío: 8°C
Humedad: 77%
Barómetro: 1023 hPa
Clouds: Parcialmente nuboso
Visibility: 10 km
Cloud details: Parcialmente nuboso 1463 m
2018/01/24 09:00 LECO 240900Z 19016KT 9999 SCT048 12/08 Q1023 NOSIG
LEVX - Vigo/Peinador, Spain
Distance from station: O 214km
Actualización: 24/01/2018 10:00
Parcialmente nuboso
Parcialmente nuboso
 Viento del S
Viento: S 13 km/h
Temperatura: 8°C
Sensación frio: 6°C
Rocío: 7°C
Humedad: 93%
Barómetro: 1026 hPa
Clouds: Parcialmente nuboso
Visibility: 10 km
Cloud details: Parcialmente nuboso 1067 m
Parcialmente nuboso 1554 m
2018/01/24 09:00 LEVX 240900Z 18007KT 140V230 9999 SCT035 SCT051 08/07 Q1026 NOSIG